Time;durP1;ratioP1;P1;durP2;ratioP2;P2;SDS_P1;SDS_P2;PMS_P1;PMS_P2;Temp;Humidity;BMP_temperature;BMP_pressure;BME280_temperature;BME280_humidity;BME280_pressure;Samples;Min_cycle;Max_cycle;Signal;HPM_P1;HPM_P2
2021/08/19 00:00:41;;;;;;;8.43;4.00;;;;;;;13.42;76.72;98891.77;4042126;85;21079;-83
2021/08/19 00:06:42;;;;;;;4.60;3.00;;;;;;;13.42;77.21;98895.29;4032038;85;21060;-82
2021/08/19 00:12:44;;;;;;;6.08;3.22;;;;;;;13.38;77.21;98895.90;4055055;85;21064;-82
2021/08/19 00:18:45;;;;;;;7.22;2.98;;;;;;;13.39;77.68;98893.33;4045885;85;21048;-82
2021/08/19 00:24:46;;;;;;;6.95;3.30;;;;;;;13.39;78.08;98888.44;4034186;85;21067;-84
2021/08/19 00:30:49;;;;;;;4.80;2.72;;;;;;;13.40;77.96;98877.62;4052938;85;21059;-83
2021/08/19 00:36:50;;;;;;;5.53;3.15;;;;;;;13.30;78.03;98872.34;4048249;85;21035;-84
2021/08/19 00:42:51;;;;;;;5.15;3.40;;;;;;;13.24;78.35;98877.26;4051027;85;21076;-83
2021/08/19 00:49:04;;;;;;;6.53;3.27;;;;;;;13.27;78.43;98873.13;4039171;85;21088;-82
2021/08/19 00:55:07;;;;;;;6.60;3.08;;;;;;;13.27;79.07;98885.51;4037654;85;21027;-82
2021/08/19 01:01:09;;;;;;;4.42;2.77;;;;;;;13.28;79.26;98884.92;4052559;85;21052;-82
2021/08/19 01:07:12;;;;;;;6.08;3.12;;;;;;;13.34;79.59;98886.09;4031289;85;21024;-82
2021/08/19 01:13:13;;;;;;;8.05;2.42;;;;;;;13.42;79.82;98887.04;4062810;85;21555;-82
2021/08/19 01:19:18;;;;;;;6.97;2.62;;;;;;;13.41;79.89;98889.61;4037756;85;21575;-82
2021/08/19 01:25:19;;;;;;;4.78;2.83;;;;;;;13.44;79.95;98893.52;4047281;85;21047;-82
2021/08/19 01:31:25;;;;;;;5.55;2.75;;;;;;;13.41;79.96;98894.31;4035982;85;21794;-82
2021/08/19 01:37:26;;;;;;;5.30;3.15;;;;;;;13.39;80.24;98889.20;4032958;85;21667;-83
2021/08/19 01:43:28;;;;;;;4.85;3.00;;;;;;;13.43;80.08;98883.13;4050184;85;21127;-82
2021/08/19 01:49:32;;;;;;;7.83;3.37;;;;;;;13.33;80.12;98884.50;4041025;85;21051;-83
2021/08/19 01:55:33;;;;;;;3.90;2.60;;;;;;;13.26;80.12;98879.83;4061869;85;21024;-82
2021/08/19 02:01:34;;;;;;;6.53;3.10;;;;;;;13.18;80.29;98879.63;4032314;85;21135;-83
2021/08/19 02:07:35;;;;;;;5.33;2.85;;;;;;;13.06;80.79;98884.14;4029432;85;21146;-83
2021/08/19 02:13:37;;;;;;;5.28;3.25;;;;;;;12.94;80.91;98878.23;4030329;85;21075;-82
2021/08/19 02:19:38;;;;;;;6.62;3.27;;;;;;;12.79;81.20;98885.70;4037569;85;21067;-81
2021/08/19 02:25:40;;;;;;;4.87;3.37;;;;;;;12.80;81.71;98881.77;4042734;85;21035;-82
2021/08/19 02:31:42;;;;;;;7.10;3.30;;;;;;;12.80;81.91;98876.27;4035061;85;21064;-84
2021/08/19 02:37:43;;;;;;;5.42;2.95;;;;;;;12.81;81.97;98881.95;4038266;85;21072;-81
2021/08/19 02:43:45;;;;;;;5.03;2.70;;;;;;;12.84;82.46;98883.15;4044201;85;21064;-82
2021/08/19 02:49:47;;;;;;;9.80;3.92;;;;;;;12.89;82.79;98886.89;4045257;85;21041;-82
2021/08/19 02:55:48;;;;;;;7.95;3.27;;;;;;;12.93;82.88;98886.28;4037066;85;21404;-83
2021/08/19 03:01:50;;;;;;;6.03;2.75;;;;;;;12.90;83.10;98874.13;4036239;85;21149;-81
2021/08/19 03:07:51;;;;;;;4.83;2.87;;;;;;;12.84;83.27;98875.70;4037799;85;21059;-82
2021/08/19 03:13:53;;;;;;;6.42;2.95;;;;;;;12.76;83.39;98874.70;4030578;85;21103;-82
2021/08/19 03:19:54;;;;;;;6.03;2.83;;;;;;;12.66;83.41;98881.76;4045422;85;22260;-83
2021/08/19 03:25:56;;;;;;;11.75;3.15;;;;;;;12.59;83.41;98881.77;4031170;85;21025;-81
2021/08/19 03:31:57;;;;;;;5.22;2.83;;;;;;;12.48;83.48;98879.59;4042541;85;21498;-82
2021/08/19 03:37:58;;;;;;;5.75;3.40;;;;;;;12.40;83.77;98879.38;4030880;85;21132;-82
2021/08/19 03:44:00;;;;;;;5.60;2.80;;;;;;;12.34;84.10;98892.69;4035749;85;21019;-82
2021/08/19 03:50:01;;;;;;;7.28;3.35;;;;;;;12.28;84.46;98889.33;4041704;85;21608;-82
2021/08/19 03:56:06;;;;;;;6.17;3.00;;;;;;;12.26;84.34;98880.72;4058845;85;21027;-82
2021/08/19 04:02:07;;;;;;;6.83;3.50;;;;;;;12.16;84.54;98883.63;4046897;85;21121;-83
2021/08/19 04:08:09;;;;;;;11.85;3.25;;;;;;;12.16;84.84;98878.14;4038509;85;21393;-82
2021/08/19 04:14:11;;;;;;;8.38;3.55;;;;;;;12.10;84.84;98877.53;4031017;85;21080;-82
2021/08/19 04:20:12;;;;;;;5.30;2.65;;;;;;;12.07;85.37;98869.50;4041231;85;21029;-82
2021/08/19 04:26:13;;;;;;;7.03;2.83;;;;;;;12.05;85.52;98875.95;4027007;85;21076;-81
2021/08/19 04:32:15;;;;;;;6.28;3.27;;;;;;;12.12;86.12;98886.94;4033200;85;21068;-81
2021/08/19 04:38:16;;;;;;;10.20;3.05;;;;;;;12.27;86.48;98887.19;4031712;85;21056;-81
2021/08/19 04:44:18;;;;;;;5.10;3.30;;;;;;;12.38;86.56;98888.00;4046199;85;21061;-82
2021/08/19 04:50:19;;;;;;;10.35;3.80;;;;;;;12.43;86.67;98887.59;4055828;85;21576;-81
2021/08/19 04:56:27;;;;;;;6.45;3.25;;;;;;;12.56;87.02;98888.02;4051562;85;21623;-82
2021/08/19 05:02:23;;;;;;;8.10;4.30;;;;;;;12.76;87.31;98891.19;4039930;85;21854;-82
2021/08/19 05:08:24;;;;;;;6.78;3.85;;;;;;;12.95;87.56;98889.43;4038594;85;21116;-81
2021/08/19 05:14:25;;;;;;;5.75;3.85;;;;;;;13.12;87.59;98885.34;4040380;85;21109;-81
2021/08/19 05:20:27;;;;;;;4.90;3.08;;;;;;;13.25;87.60;98893.35;4035749;85;21152;-82
2021/08/19 05:26:28;;;;;;;3.85;2.37;;;;;;;13.40;87.83;98885.30;4036700;85;21520;-82
2021/08/19 05:32:29;;;;;;;4.17;2.50;;;;;;;13.61;87.99;98877.56;4032511;85;21083;-81
2021/08/19 05:38:30;;;;;;;4.72;2.37;;;;;;;14.01;87.59;98876.45;4037069;85;21023;-82
2021/08/19 05:44:32;;;;;;;3.52;2.02;;;;;;;14.50;86.88;98884.28;4035309;85;21056;-81
2021/08/19 05:50:34;;;;;;;4.33;2.10;;;;;;;14.90;86.54;98884.97;4040305;85;21083;-82
2021/08/19 05:56:35;;;;;;;4.50;2.02;;;;;;;15.21;86.07;98881.94;4028110;85;21056;-81
2021/08/19 06:02:37;;;;;;;2.35;1.67;;;;;;;15.47;85.78;98882.69;4042686;85;21040;-82
2021/08/19 06:08:38;;;;;;;2.33;1.85;;;;;;;15.76;85.57;98892.04;4030420;85;21052;-82
2021/08/19 06:14:40;;;;;;;2.37;1.72;;;;;;;15.96;85.40;98899.30;4031239;85;21084;-82
2021/08/19 06:20:41;;;;;;;3.20;2.27;;;;;;;16.13;85.39;98896.15;4027674;85;21135;-82
2021/08/19 06:26:42;;;;;;;4.22;2.00;;;;;;;16.28;85.50;98888.64;4041336;85;21081;-82
2021/08/19 06:32:44;;;;;;;3.15;2.10;;;;;;;16.48;85.37;98890.16;4050985;85;21080;-82
2021/08/19 06:38:45;;;;;;;3.87;2.08;;;;;;;16.61;85.34;98882.28;4029747;85;21425;-82
2021/08/19 06:44:46;;;;;;;2.58;1.50;;;;;;;16.76;84.94;98882.83;4037163;85;21063;-81
2021/08/19 06:50:47;;;;;;;4.58;2.08;;;;;;;16.95;84.69;98882.14;4069275;85;21519;-82
2021/08/19 06:56:48;;;;;;;3.20;1.80;;;;;;;17.21;84.31;98880.70;4026700;85;21063;-81
2021/08/19 07:02:50;;;;;;;2.65;2.00;;;;;;;17.50;83.90;98876.86;4036176;85;21991;-83
2021/08/19 07:08:51;;;;;;;3.33;1.87;;;;;;;17.70;83.63;98880.44;4036682;85;21179;-81
2021/08/19 07:14:52;;;;;;;4.55;1.80;;;;;;;18.02;83.26;98873.67;4049364;85;21037;-80
2021/08/19 07:20:54;;;;;;;3.62;1.62;;;;;;;18.25;82.52;98881.88;4044643;85;21128;-82
2021/08/19 07:26:55;;;;;;;4.75;1.87;;;;;;;18.56;81.56;98883.20;4047658;85;21186;-81
2021/08/19 07:32:56;;;;;;;2.15;1.65;;;;;;;18.75;81.38;98876.02;4035216;85;21631;-80
2021/08/19 07:39:02;;;;;;;1.42;1.22;;;;;;;18.97;80.53;98868.76;4041621;85;21068;-82
2021/08/19 07:45:00;;;;;;;4.25;1.62;;;;;;;19.12;79.49;98866.42;4046678;85;21108;-81
2021/08/19 07:51:02;;;;;;;2.52;1.60;;;;;;;19.22;78.72;98867.53;4042751;85;20993;-82
2021/08/19 07:57:04;;;;;;;2.52;1.72;;;;;;;19.32;78.26;98869.30;4042296;85;21083;-81
2021/08/19 08:03:05;;;;;;;2.05;1.60;;;;;;;19.41;77.47;98863.89;4035567;85;21082;-85
2021/08/19 08:09:07;;;;;;;1.75;1.55;;;;;;;19.49;76.86;98864.48;4043753;85;21077;-82
2021/08/19 08:15:10;;;;;;;4.45;1.90;;;;;;;19.56;76.20;98869.23;4042833;85;21573;-82
2021/08/19 08:21:14;;;;;;;5.75;2.45;;;;;;;19.68;76.29;98873.28;4037348;85;21127;-83
2021/08/19 08:27:14;;;;;;;3.60;1.65;;;;;;;19.79;75.81;98874.56;4036011;85;21574;-83
2021/08/19 08:33:16;;;;;;;3.65;2.02;;;;;;;19.95;75.69;98876.50;4051146;85;21188;-83
2021/08/19 08:39:19;;;;;;;9.00;1.82;;;;;;;20.18;75.38;98886.77;4059698;85;21087;-83
2021/08/19 08:45:20;;;;;;;3.67;1.80;;;;;;;20.39;74.90;98881.80;4043754;85;21014;-83
2021/08/19 08:51:23;;;;;;;2.40;2.02;;;;;;;20.65;74.31;98879.98;4041550;85;21123;-82
2021/08/19 08:57:24;;;;;;;4.58;3.40;;;;;;;20.84;73.63;98881.77;4043265;85;21582;-83
2021/08/19 09:03:26;;;;;;;3.50;1.98;;;;;;;20.86;73.04;98879.29;4054093;85;21101;-84
2021/08/19 09:09:28;;;;;;;3.33;1.62;;;;;;;20.93;72.33;98880.47;4048009;85;21029;-83
2021/08/19 09:15:30;;;;;;;3.80;1.62;;;;;;;21.17;71.65;98878.13;4056024;85;21071;-82
2021/08/19 09:21:37;;;;;;;2.90;1.60;;;;;;;21.26;71.25;98876.22;4049899;85;21652;-84
2021/08/19 09:27:38;;;;;;;1.25;1.10;;;;;;;21.43;71.21;98877.62;4011806;85;21079;-83
2021/08/19 09:33:44;;;;;;;3.87;1.62;;;;;;;21.74;70.65;98875.72;4038387;85;21058;-83
2021/08/19 09:39:58;;;;;;;1.55;1.10;;;;;;;22.04;69.43;98873.48;4028967;85;21075;-83
2021/08/19 09:45:59;;;;;;;2.58;1.45;;;;;;;22.71;68.69;98873.10;4027209;85;21089;-83
2021/08/19 09:52:13;;;;;;;2.72;1.50;;;;;;;23.08;67.88;98872.01;4038846;84;21595;-83
2021/08/19 09:58:33;;;;;;;2.05;1.40;;;;;;;23.05;66.93;98871.54;4058268;85;20997;-83
2021/08/19 10:04:36;;;;;;;1.77;1.42;;;;;;;22.91;67.28;98870.08;4032940;85;21737;-83
2021/08/19 10:10:38;;;;;;;2.40;1.10;;;;;;;23.18;66.61;98865.19;4043668;85;21509;-82
2021/08/19 10:16:41;;;;;;;2.20;1.20;;;;;;;23.58;65.67;98864.52;4034619;85;21082;-83
2021/08/19 10:22:42;;;;;;;2.60;1.40;;;;;;;23.77;64.78;98861.09;4037637;85;21079;-83
2021/08/19 10:28:56;;;;;;;4.00;1.42;;;;;;;23.48;63.66;98860.15;4042760;85;21040;-82
2021/08/19 10:35:11;;;;;;;3.10;1.42;;;;;;;23.11;63.53;98863.49;4035814;85;21068;-84
2021/08/19 10:41:36;;;;;;;1.40;1.20;;;;;;;22.90;63.30;98861.56;4049046;85;21054;-83
2021/08/19 10:47:39;;;;;;;2.00;1.62;;;;;;;22.87;63.54;98859.69;4039131;85;21072;-83
2021/08/19 10:53:40;;;;;;;2.30;1.50;;;;;;;23.08;62.68;98856.02;4053257;85;21112;-83
2021/08/19 10:59:46;;;;;;;3.00;1.52;;;;;;;22.86;61.86;98851.78;4043083;85;21047;-83
2021/08/19 11:05:53;;;;;;;5.40;1.30;;;;;;;22.71;61.67;98841.80;4032247;85;21049;-83
2021/08/19 11:11:55;;;;;;;3.27;1.30;;;;;;;23.45;61.43;98838.73;4042452;85;21075;-83
2021/08/19 11:17:59;;;;;;;5.50;1.20;;;;;;;24.61;58.98;98834.21;4036243;85;21091;-83
2021/08/19 11:24:01;;;;;;;3.15;1.10;;;;;;;24.56;58.42;98827.06;4035484;85;21012;-83
2021/08/19 11:30:03;;;;;;;3.08;1.17;;;;;;;23.39;58.04;98843.39;4053998;85;21547;-83
2021/08/19 11:36:07;;;;;;;3.67;1.50;;;;;;;23.39;58.04;98843.39;4059317;85;21067;-83
2021/08/19 11:42:08;;;;;;;3.67;1.60;;;;;;;22.98;58.19;98842.50;4030582;85;21048;-84
2021/08/19 11:48:12;;;;;;;4.33;1.45;;;;;;;22.91;57.86;98838.62;4036138;85;21039;-84
2021/08/19 11:54:15;;;;;;;3.58;1.25;;;;;;;22.83;57.92;98839.51;4048135;84;21608;-83
2021/08/19 12:00:17;;;;;;;3.62;1.32;;;;;;;22.88;56.15;98829.14;4043555;85;21166;-83
2021/08/19 12:06:19;;;;;;;2.98;1.30;;;;;;;22.70;57.05;98829.09;4053039;85;21063;-85
2021/08/19 12:12:25;;;;;;;3.20;1.00;;;;;;;22.78;57.05;98832.38;4051208;85;21063;-83
2021/08/19 12:18:27;;;;;;;3.22;1.05;;;;;;;22.80;56.47;98822.93;4042142;85;21068;-84
2021/08/19 12:24:39;;;;;;;5.03;1.32;;;;;;;22.56;56.44;98824.09;4045836;85;21051;-84
2021/08/19 12:31:03;;;;;;;2.67;1.40;;;;;;;22.21;56.51;98832.40;4040222;85;21139;-84
2021/08/19 12:37:07;;;;;;;1.92;1.00;;;;;;;21.83;56.53;98840.23;4043777;85;21075;-85
2021/08/19 12:43:11;;;;;;;3.15;1.50;;;;;;;21.59;57.19;98841.25;4035998;85;66586;-83
2021/08/19 12:49:35;;;;;;;2.40;1.62;;;;;;;21.58;57.43;98835.50;4039076;86;21034;-83
2021/08/19 12:55:38;;;;;;;3.65;1.60;;;;;;;21.60;57.65;98837.23;4039638;86;21078;-83
2021/08/19 13:01:39;;;;;;;3.72;1.62;;;;;;;21.74;57.91;98828.36;4036868;86;21092;-86
2021/08/19 13:07:41;;;;;;;3.98;1.72;;;;;;;21.89;57.77;98827.87;4052629;86;21059;-83
2021/08/19 13:13:42;;;;;;;1.60;1.05;;;;;;;22.01;57.70;98819.44;4042712;86;21457;-84
2021/08/19 13:19:45;;;;;;;7.10;2.05;;;;;;;22.06;58.22;98825.03;4049080;86;21182;-84
2021/08/19 13:25:47;;;;;;;1.65;1.12;;;;;;;22.13;58.05;98823.39;4042282;86;21508;-85
2021/08/19 13:31:49;;;;;;;1.82;0.95;;;;;;;22.10;58.49;98831.27;4042249;86;21071;-84
2021/08/19 13:37:50;;;;;;;1.85;1.00;;;;;;;22.13;58.32;98833.14;4039662;86;21690;-85
2021/08/19 13:43:51;;;;;;;1.12;1.00;;;;;;;22.16;58.47;98828.05;4044079;86;21038;-85
2021/08/19 13:49:53;;;;;;;2.60;1.12;;;;;;;22.19;58.10;98836.25;4038247;86;21059;-83
2021/08/19 13:55:55;;;;;;;6.65;1.00;;;;;;;22.16;57.72;98842.74;4033382;86;21034;-83
2021/08/19 14:01:57;;;;;;;3.35;0.90;;;;;;;22.10;57.04;98842.42;4037991;86;21055;-84
2021/08/19 14:07:58;;;;;;;1.52;1.00;;;;;;;22.00;56.79;98839.40;4052138;86;21034;-84
2021/08/19 14:14:01;;;;;;;1.95;1.05;;;;;;;21.92;56.88;98845.07;4028809;86;21517;-84
2021/08/19 14:20:04;;;;;;;2.25;1.20;;;;;;;21.80;56.53;98849.47;4046098;86;21127;-81
2021/08/19 14:26:10;;;;;;;1.80;0.98;;;;;;;21.76;56.19;98848.05;4037906;86;21496;-83
2021/08/19 14:32:11;;;;;;;1.87;1.20;;;;;;;21.69;57.17;98842.08;4041358;86;21590;-84
2021/08/19 14:38:12;;;;;;;2.60;1.47;;;;;;;21.64;57.04;98846.22;4032815;86;21051;-83
2021/08/19 14:44:14;;;;;;;3.08;1.25;;;;;;;21.60;57.19;98845.58;4040008;86;21179;-83
2021/08/19 14:50:15;;;;;;;2.85;1.47;;;;;;;21.62;57.65;98844.53;4033240;86;21468;-82
2021/08/19 14:56:16;;;;;;;3.62;1.15;;;;;;;21.62;58.75;98850.09;4037685;86;22316;-83
2021/08/19 15:02:18;;;;;;;2.00;1.25;;;;;;;21.56;57.97;98851.12;4039475;86;21019;-84
2021/08/19 15:08:19;;;;;;;3.02;1.35;;;;;;;21.54;57.53;98851.58;4036371;86;21034;-85
2021/08/19 15:14:20;;;;;;;4.42;1.35;;;;;;;21.43;57.81;98850.37;4045556;86;21044;-84
2021/08/19 15:20:22;;;;;;;2.12;0.93;;;;;;;21.38;57.87;98855.13;4014940;86;21071;-84
2021/08/19 15:26:25;;;;;;;4.42;1.22;;;;;;;21.27;58.02;98857.48;4037028;86;21406;-84
2021/08/19 15:32:26;;;;;;;1.87;1.40;;;;;;;21.27;58.41;98864.45;4049083;86;21578;-84
2021/08/19 15:38:31;;;;;;;3.60;1.60;;;;;;;21.23;58.86;98861.81;4042515;86;21402;-83
2021/08/19 15:44:32;;;;;;;1.82;1.55;;;;;;;21.25;59.17;98860.73;4042960;86;21524;-85
2021/08/19 15:50:34;;;;;;;3.35;1.67;;;;;;;21.13;59.62;98867.71;4040979;86;21665;-84
2021/08/19 15:56:36;;;;;;;5.80;1.32;;;;;;;21.06;59.62;98865.97;4037557;86;21557;-84
2021/08/19 16:02:38;;;;;;;2.67;1.40;;;;;;;21.03;59.77;98869.61;4046023;86;22001;-85
2021/08/19 16:08:41;;;;;;;3.47;1.67;;;;;;;21.06;60.09;98875.70;4039307;86;21532;-84
2021/08/19 16:14:42;;;;;;;4.10;1.77;;;;;;;20.98;60.64;98878.55;4043724;86;21095;-83
2021/08/19 16:20:44;;;;;;;2.70;1.30;;;;;;;20.84;60.75;98878.98;4046005;85;21123;-84
2021/08/19 16:26:45;;;;;;;3.67;1.92;;;;;;;20.71;60.88;98880.98;4038264;86;21065;-83
2021/08/19 16:32:46;;;;;;;3.42;1.55;;;;;;;20.64;60.85;98883.20;4037055;86;21058;-83
2021/08/19 16:38:48;;;;;;;3.77;1.87;;;;;;;20.61;60.89;98883.47;4044345;86;21071;-84
2021/08/19 16:44:49;;;;;;;5.40;1.87;;;;;;;20.54;61.13;98888.47;4038344;86;21098;-83
2021/08/19 16:50:50;;;;;;;3.15;2.15;;;;;;;20.43;61.35;98888.80;4039188;86;21507;-83
2021/08/19 16:56:52;;;;;;;3.50;2.27;;;;;;;20.38;61.75;98890.73;4041922;86;21408;-83
2021/08/19 17:02:53;;;;;;;5.15;2.30;;;;;;;20.30;62.09;98899.74;4035592;86;20996;-84
2021/08/19 17:08:54;;;;;;;5.03;2.70;;;;;;;20.23;62.37;98899.34;4045293;86;21038;-84
2021/08/19 17:14:56;;;;;;;4.50;2.45;;;;;;;20.20;62.91;98898.20;4040583;86;21023;-83
2021/08/19 17:20:59;;;;;;;3.95;1.90;;;;;;;20.10;63.08;98898.48;4040772;86;21143;-84
2021/08/19 17:27:01;;;;;;;7.75;2.85;;;;;;;20.04;63.30;98906.59;4030544;86;21650;-84
2021/08/19 17:33:02;;;;;;;7.17;3.52;;;;;;;19.95;63.76;98898.73;4065115;86;21503;-84
2021/08/19 17:39:04;;;;;;;8.35;3.08;;;;;;;19.80;64.09;98903.89;4040009;86;21063;-83
2021/08/19 17:45:05;;;;;;;11.35;3.77;;;;;;;19.74;64.45;98904.86;4016747;86;21080;-84
2021/08/19 17:51:09;;;;;;;7.05;4.53;;;;;;;19.68;64.71;98899.67;4035207;86;21548;-83
2021/08/19 17:57:10;;;;;;;11.83;5.37;;;;;;;19.52;64.71;98903.26;4026949;86;21059;-83
2021/08/19 18:03:12;;;;;;;12.68;6.05;;;;;;;19.38;64.80;98905.02;4030475;86;21016;-84
2021/08/19 18:09:13;;;;;;;10.08;6.50;;;;;;;19.27;65.48;98912.01;4046429;86;21051;-84
2021/08/19 18:15:15;;;;;;;6.35;4.22;;;;;;;19.15;65.57;98912.72;3916272;86;9999538;-84
2021/08/19 18:21:17;;;;;;;9.28;4.70;;;;;;;19.03;65.84;98913.42;4039970;86;20980;-83
2021/08/19 18:27:19;;;;;;;6.20;3.52;;;;;;;18.88;66.51;98924.06;4030656;86;21082;-84
2021/08/19 18:33:20;;;;;;;7.65;4.03;;;;;;;18.79;66.92;98929.42;4032967;86;21000;-83
2021/08/19 18:39:22;;;;;;;6.87;3.62;;;;;;;18.66;67.78;98926.55;4034754;86;21107;-84
2021/08/19 18:45:24;;;;;;;4.58;3.12;;;;;;;18.58;68.40;98930.68;4045930;86;21051;-84
2021/08/19 18:51:27;;;;;;;6.80;3.92;;;;;;;18.51;68.79;98942.53;4021504;86;21622;-84
2021/08/19 18:57:29;;;;;;;5.92;3.70;;;;;;;18.46;69.39;98939.64;4015504;86;21091;-85
2021/08/19 19:03:30;;;;;;;5.80;3.55;;;;;;;18.42;69.59;98949.23;4037531;86;21081;-85
2021/08/19 19:09:32;;;;;;;6.55;3.90;;;;;;;18.39;69.63;98953.66;4043823;86;21951;-84
2021/08/19 19:15:34;;;;;;;6.10;3.67;;;;;;;18.36;70.08;98959.23;3990581;87;21996;-84
2021/08/19 19:21:35;;;;;;;6.58;4.35;;;;;;;18.36;70.54;98968.94;3981200;87;21139;-84
2021/08/19 19:27:37;;;;;;;7.60;4.03;;;;;;;18.35;70.67;98966.76;4047198;86;22017;-84
2021/08/19 19:33:39;;;;;;;7.72;4.10;;;;;;;18.33;70.73;98965.04;3941332;88;21027;-84
2021/08/19 19:39:40;;;;;;;7.08;4.40;;;;;;;18.32;70.61;98969.63;3944682;88;21088;-84
2021/08/19 19:45:41;;;;;;;8.10;4.33;;;;;;;18.32;71.12;98974.55;3913632;88;21079;-84
2021/08/19 19:51:42;;;;;;;8.88;4.25;;;;;;;18.32;71.09;98969.63;3914562;88;21064;-84
2021/08/19 19:57:44;;;;;;;6.45;4.17;;;;;;;18.20;71.27;98965.50;3932078;88;21067;-84
2021/08/19 20:03:45;;;;;;;7.00;4.37;;;;;;;18.16;71.64;98957.08;4042886;86;21058;-85
2021/08/19 20:09:46;;;;;;;7.80;4.50;;;;;;;18.14;71.95;98965.02;4044685;86;21486;-84
2021/08/19 20:15:47;;;;;;;7.17;4.58;;;;;;;18.06;71.79;98969.14;4046503;86;20999;-84
2021/08/19 20:21:49;;;;;;;7.80;3.83;;;;;;;18.00;72.41;98974.40;4038232;86;21024;-84
2021/08/19 20:27:50;;;;;;;6.50;4.05;;;;;;;17.94;73.09;98973.33;4040865;85;20964;-84
2021/08/19 20:33:52;;;;;;;9.20;4.33;;;;;;;17.84;73.19;98985.38;4032956;86;21035;-84
2021/08/19 20:39:53;;;;;;;10.03;4.47;;;;;;;17.80;73.85;98986.65;4039081;86;21053;-84
2021/08/19 20:45:54;;;;;;;7.03;3.80;;;;;;;17.76;74.19;98991.48;4037371;86;21090;-83
2021/08/19 20:51:55;;;;;;;7.10;4.15;;;;;;;17.74;74.38;98989.73;4050762;86;21647;-84
2021/08/19 20:57:56;;;;;;;8.63;4.25;;;;;;;17.67;74.88;98994.78;4048084;86;21027;-83
2021/08/19 21:03:58;;;;;;;8.10;3.75;;;;;;;17.63;74.74;98993.28;4044661;86;21031;-84
2021/08/19 21:09:59;;;;;;;6.65;3.92;;;;;;;17.65;75.14;98995.03;4041674;86;21618;-84
2021/08/19 21:16:01;;;;;;;7.83;4.55;;;;;;;17.68;75.86;98999.73;4039273;86;21066;-83
2021/08/19 21:22:02;;;;;;;8.98;4.62;;;;;;;17.70;76.02;99006.39;4034807;86;21071;-84
2021/08/19 21:28:04;;;;;;;9.43;4.40;;;;;;;17.73;76.09;99004.78;4049513;86;21058;-83
2021/08/19 21:34:06;;;;;;;8.38;4.22;;;;;;;17.75;76.01;99005.91;4040339;86;21724;-84
2021/08/19 21:40:08;;;;;;;10.30;5.17;;;;;;;17.77;76.15;99008.27;4046562;86;22205;-84
2021/08/19 21:46:10;;;;;;;9.15;4.25;;;;;;;17.68;76.75;99017.09;4031328;86;21029;-83
2021/08/19 21:52:11;;;;;;;6.60;4.30;;;;;;;17.64;77.09;99017.77;4043409;86;20995;-85
2021/08/19 21:58:12;;;;;;;8.48;4.78;;;;;;;17.51;76.70;99024.34;4047458;86;21115;-83
2021/08/19 22:04:13;;;;;;;8.55;4.80;;;;;;;17.60;77.00;99028.13;4043605;86;20976;-84
2021/08/19 22:10:15;;;;;;;7.95;4.45;;;;;;;17.67;77.10;99034.92;4035705;86;21555;-83
2021/08/19 22:16:17;;;;;;;8.20;4.83;;;;;;;17.72;77.28;99028.12;4044826;86;21965;-85
2021/08/19 22:22:21;;;;;;;8.13;5.37;;;;;;;17.68;77.68;99042.02;4034687;86;21027;-83
2021/08/19 22:28:22;;;;;;;10.18;5.00;;;;;;;17.64;77.82;99042.69;4042199;86;21079;-84
2021/08/19 22:34:24;;;;;;;12.93;5.67;;;;;;;17.60;77.67;99040.59;4039677;86;21590;-83
2021/08/19 22:40:25;;;;;;;15.03;6.40;;;;;;;17.65;77.97;99050.40;4027454;86;21519;-84
2021/08/19 22:46:26;;;;;;;9.03;5.22;;;;;;;17.57;78.02;99053.09;4057866;86;21052;-84
2021/08/19 22:52:27;;;;;;;9.55;4.95;;;;;;;17.50;77.91;99049.84;4034707;86;21087;-83
2021/08/19 22:58:29;;;;;;;7.60;4.53;;;;;;;17.44;77.90;99053.46;4038685;86;21097;-83
2021/08/19 23:04:30;;;;;;;8.33;4.97;;;;;;;17.37;78.04;99062.65;4028503;86;21038;-84
2021/08/19 23:10:34;;;;;;;7.00;4.83;;;;;;;17.48;78.58;99062.53;4026732;86;21031;-84
2021/08/19 23:16:35;;;;;;;8.68;4.58;;;;;;;17.54;78.50;99061.63;4035930;86;21091;-83
2021/08/19 23:22:36;;;;;;;10.63;4.78;;;;;;;17.51;78.75;99061.08;4041194;86;21046;-84
2021/08/19 23:28:37;;;;;;;8.90;4.50;;;;;;;17.52;78.64;99057.72;4041894;86;21094;-84
2021/08/19 23:34:39;;;;;;;7.28;4.65;;;;;;;17.46;78.82;99062.16;4042719;86;21020;-84
2021/08/19 23:40:41;;;;;;;9.43;4.35;;;;;;;17.41;79.33;99061.22;4034064;86;21071;-83
2021/08/19 23:46:42;;;;;;;6.17;4.30;;;;;;;17.40;79.66;99065.20;4024914;86;20996;-84
2021/08/19 23:52:43;;;;;;;5.78;4.12;;;;;;;17.47;79.80;99065.10;4047407;86;22136;-83
2021/08/19 23:58:44;;;;;;;6.00;4.22;;;;;;;17.50;79.88;99069.20;4042839;86;21063;-84
